Flight Track Log - Related Links

Times and Time Zones

All times are in EDT time to prevent confusion due to time zone crossing. See the JBU767 flight status page for this flight to view local times or setup timezone preferences in your user account.

Time Position Orientation Groundspeed Altitude Reporting Facility
EDT Latitude Longitude Course Direction KTS MPH feet Rate Location/Type
Sat 11:48:06 PM 28.4500 -81.3167 149° Southeast 150 173 700  Level Orlando TRACON
Sat 11:48:54 PM 28.4667 -81.3000 41° Northeast 181 208 1,900 1,944 Climbing Orlando TRACON
Sat 11:49:54 PM 28.4500 -81.2333 106° East 223 257 4,200 2,350 Climbing Orlando TRACON
Sat 11:50:54 PM 28.4000 -81.1833 139° Southeast 276 318 6,600 2,650 Climbing Orlando TRACON
Sat 11:51:00 PM 28.1404 -80.8324 146° Southeast  Level Estimated
Sat 11:51:54 PM 28.3500 -81.1167 130° Southeast 292 336 9,500  Level Orlando TRACON
Sat 11:52:00 PM 28.0679 -80.7136 152° Southeast  Level Estimated
Sat 11:52:16 PM 28.3300 -81.0903 131° Southeast 291 335 10,400  Level Miami Center
Sat 11:53:00 PM 27.9953 -80.5950 149° Southeast  Level Estimated
Sat 11:53:16 PM 28.2678 -81.0100 131° Southeast 325 374 11,700  Level Miami Center
Sat 11:54:16 PM 28.2031 -80.9369 135° Southeast 357 411 14,100 2,529 Climbing Miami Center
Sat 11:55:17 PM 28.1303 -80.8544 135° Southeast 369 425 16,800 1,884 Climbing Miami Center
Sat 11:56:17 PM 28.0617 -80.7742 134° Southeast 377 434 17,900 1,950 Climbing Miami Center
Sat 11:57:17 PM 27.9767 -80.6725 133° Southeast 394 453 20,700 2,400 Climbing Miami Center
Sat 11:58:17 PM 27.8953 -80.5853 137° Southeast 400 460 22,700 2,050 Climbing Miami Center
Sat 11:59:17 PM 27.8164 -80.4958 135° Southeast 400 460 24,800 1,815 Climbing Miami Center
Sun 12:00:16 AM 27.7350 -80.4042 135° Southeast 395 455 26,300 1,563 Climbing Miami Center
Sun 12:01:16 AM 27.6558 -80.3150 135° Southeast 395 455 27,900 1,400 Climbing Miami Center
Sun 12:02:16 AM 27.5744 -80.2233 135° Southeast 400 460 29,100 992 Climbing Miami Center
Sun 12:03:17 AM 27.4889 -80.1297 136° Southeast 405 466 29,900 843 Climbing Miami Center
Sun 12:04:17 AM 27.4033 -80.0336 135° Southeast 423 487 30,800 942 Climbing Miami Center
Sun 12:05:18 AM 27.3158 -79.9331 134° Southeast 435 501 31,800 1,160 Climbing Miami Center
Sun 12:06:16 AM 27.2242 -79.8231 133° Southeast 439 505 33,100 1,220 Climbing Miami Center
Sun 12:07:16 AM 27.1617 -79.7119 122° Southeast 454 522 34,200 950 Climbing Miami Center
Sun 12:08:16 AM 27.0869 -79.5817 123° Southeast 455 524 35,000 400 Climbing Miami Center
Sun 12:09:16 AM 27.0161 -79.4589 123° Southeast 460 529 35,000  Level Miami Center
Sun 12:10:16 AM 26.9450 -79.3361 123° Southeast 465 535 35,000  Level Miami Center
Sun 12:11:16 AM 26.8697 -79.2111 124° Southeast 474 545 35,000  Level Miami Center
Sun 12:12:16 AM 26.7967 -79.0861 123° Southeast 479 551 35,000  Level Miami Center
Sun 12:13:16 AM 26.7275 -78.9639 122° Southeast 479 551 35,000  Level Miami Center
Sun 12:14:16 AM 26.6539 -78.8417 124° Southeast 473 544 35,000  Level Miami Center
Sun 12:15:16 AM 26.5886 -78.7222 121° Southeast 468 539 35,000  Level Miami Center
Sun 12:16:17 AM 26.5169 -78.6094 125° Southeast 475 547 35,000  Level Miami Center
Sun 12:17:17 AM 26.4408 -78.4925 126° Southeast 473 544 35,000  Level Miami Center
Sun 12:18:16 AM 26.3733 -78.3639 120° Southeast 473 544 35,000  Level Miami Center
Sun 12:19:16 AM 26.2992 -78.2517 126° Southeast 466 536 35,000  Level Miami Center
Sun 12:20:16 AM 26.2272 -78.1236 122° Southeast 471 542 35,000  Level Miami Center
Sun 12:21:17 AM 26.1531 -78.0000 124° Southeast 476 548 35,000  Level Miami Center
Sun 12:22:16 AM 26.0789 -77.8789 124° Southeast 476 548 35,000  Level Miami Center
Sun 12:23:16 AM 26.0022 -77.7558 125° Southeast 481 554 35,000  Level Miami Center
Sun 12:24:16 AM 25.9319 -77.6283 121° Southeast 481 554 35,000  Level Miami Center
Sun 12:25:16 AM 25.8553 -77.5075 125° Southeast 481 554 35,000  Level Miami Center
Sun 12:26:17 AM 25.7764 -77.3711 123° Southeast 481 554 35,000  Level Miami Center
Sun 12:27:16 AM 25.7119 -77.2647 124° Southeast 481 554 35,000  Level Miami Center
Sun 12:28:16 AM 25.6347 -77.1400 124° Southeast 481 554 35,000  Level Miami Center
Sun 12:29:17 AM 25.5597 -77.0178 124° Southeast 486 559 35,000 393 Level Miami Center
Sun 12:30:18 AM 25.4825 -76.8956 125° Southeast 486 559 35,800 756 Climbing Miami Center
Sun 12:31:16 AM 25.4053 -76.7783 126° Southeast 486 559 36,500 559 Climbing Miami Center
Sun 12:32:16 AM 25.3278 -76.6564 125° Southeast 486 559 36,900 248 Climbing Miami Center
Sun 12:33:17 AM 25.2461 -76.5347 127° Southeast 486 559 37,000 50 Climbing Miami Center
Sun 12:34:16 AM 25.1642 -76.4133 127° Southeast 486 559 37,000  Level Miami Center
Sun 12:35:16 AM 25.0864 -76.2944 126° Southeast 491 565 37,000  Level Miami Center
Sun 12:36:16 AM 25.0086 -76.1753 126° Southeast 486 559 37,000  Level Miami Center
Sun 12:37:17 AM 24.9286 -76.0544 126° Southeast 481 554 37,000  Level Miami Center
Sun 12:38:17 AM 24.8528 -75.9381 126° Southeast 481 554 37,000  Level Miami Center
Sun 12:39:17 AM 24.7703 -75.8175 127° Southeast 481 554 37,000  Level Miami Center
Sun 12:40:18 AM 24.6878 -75.6947 126° Southeast 486 559 37,000  Level Miami Center
Sun 12:41:17 AM 24.6094 -75.5719 125° Southeast 486 559 37,000  Level Miami Center
Sun 12:42:16 AM 24.5269 -75.4517 127° Southeast 492 566 37,000  Level Miami Center
Sun 12:43:17 AM 24.4442 -75.3294 127° Southeast 498 573 37,000  Level Miami Center
Sun 12:44:17 AM 24.3550 -75.1958 126° Southeast 498 573 37,000  Level Miami Center
Sun 12:45:17 AM 24.2722 -75.0739 127° Southeast 498 573 37,000  Level Miami Center
Sun 12:46:17 AM 24.1911 -74.9544 127° Southeast 498 573 37,000  Level Miami Center
Sun 12:47:18 AM 24.1081 -74.8306 126° Southeast 498 573 37,000  Level Miami Center
Sun 12:48:17 AM 24.0250 -74.7089 127° Southeast 498 573 37,000  Level Miami Center
Sun 12:49:17 AM 23.9417 -74.5900 127° Southeast 498 573 37,000  Level Miami Center
Sun 12:50:18 AM 23.8603 -74.4711 127° Southeast 498 573 37,000  Level Miami Center
Sun 12:51:16 AM 23.7769 -74.3500 127° Southeast 498 573 37,000  Level Miami Center
Sun 12:52:17 AM 23.6933 -74.2314 128° Southeast 498 573 37,000  Level Miami Center
Sun 12:53:16 AM 23.6117 -74.1106 126° Southeast 498 573 37,000  Level Miami Center
Sun 12:54:16 AM 23.5239 -73.9881 128° Southeast 498 573 37,000  Level Miami Center
Sun 12:55:16 AM 23.4442 -73.8719 127° Southeast 498 573 37,000  Level Miami Center
Sun 12:56:16 AM 23.3603 -73.7517 127° Southeast 498 573 37,000  Level Miami Center
Sun 12:57:16 AM 23.2786 -73.6361 128° Southeast 493 567 37,000  Level Miami Center
Sun 12:58:16 AM 23.2006 -73.5161 125° Southeast 493 567 37,000  Level Miami Center
Sun 12:59:16 AM 23.1167 -73.3986 128° Southeast 493 567 37,000  Level Miami Center
Sun 01:00:16 AM 23.0281 -73.2814 129° Southeast 493 567 37,000  Level Miami Center
Sun 01:01:16 AM 22.9439 -73.1619 127° Southeast 500 575 37,000  Level Miami Center
Sun 01:02:16 AM 22.8681 -73.0492 126° Southeast 493 567 37,000  Level Miami Center
Sun 01:03:16 AM 22.7856 -72.9278 126° Southeast 493 567 37,000  Level Miami Center
Sun 01:04:16 AM 22.7031 -72.8111 127° Southeast 493 567 37,000  Level Miami Center
Sun 01:05:17 AM 22.6186 -72.6967 129° Southeast 498 573 37,000  Level Miami Center
Sun 01:06:16 AM 22.5381 -72.5781 126° Southeast 498 573 37,000  Level Miami Center
Sun 01:07:16 AM 22.4531 -72.4572 127° Southeast 498 573 37,000  Level Miami Center
Sun 01:08:16 AM 22.3703 -72.3389 127° Southeast 498 573 37,000  Level Miami Center
Sun 01:09:18 AM 22.2942 -72.2361 129° Southeast 498 573 37,000  Level Miami Center
Sun 01:10:17 AM 22.2069 -72.1203 129° Southeast 498 573 37,000  Level Miami Center
Sun 01:11:16 AM 22.1239 -72.0000 127° Southeast 498 573 37,000  Level Miami Center
Sun 01:12:16 AM 22.0431 -71.8844 127° Southeast 498 573 37,000  Level Miami Center
Sun 01:13:16 AM 21.9578 -71.7692 129° Southeast 498 573 37,000  Level Miami Center
Sun 01:14:16 AM 21.8767 -71.6558 128° Southeast 498 573 37,000  Level Miami Center
Sun 01:15:15 AM 21.7933 -71.5408 128° Southeast 498 573 37,000  Level Miami Center
Sun 01:16:15 AM 21.7100 -71.4258 128° Southeast 493 567 37,000  Level Miami Center
Sun 01:17:15 AM 21.6269 -71.3131 128° Southeast 493 567 37,000  Level Miami Center
Sun 01:18:15 AM 21.5456 -71.1983 127° Southeast 488 562 37,000  Level Miami Center
Sun 01:19:16 AM 21.4553 -71.0731 128° Southeast 488 562 37,000  Level Miami Center
Sun 01:20:15 AM 21.3650 -70.9522 129° Southeast 465 535 37,000  Level Miami Center
Sun 01:21:17 AM 21.2836 -70.8400 128° Southeast 477 549 37,000  Level Miami Center
Sun 01:22:15 AM 21.2000 -70.7283 129° Southeast 482 555 37,000  Level Miami Center
Sun 01:23:16 AM 21.1161 -70.6142 128° Southeast 482 555 37,000  Level Miami Center
Sun 01:24:18 AM 21.0322 -70.5003 128° Southeast 482 555 37,000  Level Miami Center
Sun 01:25:17 AM 20.9503 -70.3844 127° Southeast 482 555 37,000  Level Miami Center
Sun 01:26:18 AM 20.8664 -70.2731 129° Southeast 482 555 37,000  Level Miami Center
Sun 01:27:16 AM 20.7803 -70.1575 129° Southeast 487 560 37,000  Level Miami Center
Sun 01:28:15 AM 20.6961 -70.0422 128° Southeast 487 560 37,000  Level Miami Center
Sun 01:29:15 AM 20.6117 -69.9269 128° Southeast 492 566 37,000  Level Miami Center
Sun 01:30:15 AM 20.5233 -69.8119 129° Southeast 498 573 37,000  Level Miami Center
Sun 01:31:16 AM 20.4367 -69.6950 128° Southeast 503 579 37,000  Level Miami Center
Sun 01:32:16 AM 20.3519 -69.5778 128° Southeast 503 579 37,000  Level Miami Center
Sun 01:33:17 AM 20.2633 -69.4611 129° Southeast 503 579 37,000  Level Miami Center
Sun 01:34:17 AM 20.1764 -69.3444 128° Southeast 503 579 37,000  Level Miami Center
Sun 01:35:16 AM 20.0897 -69.2281 128° Southeast 498 573 37,000  Level Miami Center
Sun 01:36:15 AM 20.0050 -69.1158 129° Southeast 498 573 37,000  Level Miami Center
Sun 01:37:15 AM 19.9181 -68.9997 129° Southeast 498 573 37,000  Level Miami Center
Sun 01:38:15 AM 19.8289 -68.8839 129° Southeast 498 573 37,000  Level Miami Center
Sun 01:39:18 AM 19.7439 -68.7656 127° Southeast 498 573 37,000  Level Miami Center
Sun 01:40:15 AM 19.6506 -68.6547 132° Southeast 498 573 37,000  Level Miami Center
Sun 01:40:55 AM 19.5833 -68.5833 135° Southeast 500 575 37,000  Level San Juan Center
Sun 01:41:55 AM 19.5000 -68.4667 127° Southeast 500 575 37,000  Level San Juan Center
Sun 01:42:55 AM 19.4167 -68.3500 127° Southeast 500 575 37,000  Level San Juan Center
Sun 01:43:56 AM 19.3333 -68.2500 131° Southeast 490 564 37,000  Level San Juan Center
Sun 01:44:56 AM 19.2333 -68.1333 132° Southeast 490 564 37,000 -50 Level San Juan Center
Sun 01:45:56 AM 19.1500 -68.0167 127° Southeast 500 575 36,900 -1,000 Descending San Juan Center
Sun 01:46:56 AM 19.0667 -67.9000 127° Southeast 500 575 35,000 -2,132 Descending San Juan Center
Sun 01:47:57 AM 18.9667 -67.7833 132° Southeast 510 587 32,600 -2,579 Descending San Juan Center
Sun 01:48:57 AM 18.8833 -67.6667 127° Southeast 510 587 29,800 -2,550 Descending San Juan Center
Sun 01:49:57 AM 18.8000 -67.5500 127° Southeast 490 564 27,500 -2,380 Descending San Juan Center
Sun 01:50:58 AM 18.7167 -67.4500 131° Southeast 460 529 25,000 -2,331 Descending San Juan Center
Sun 01:51:58 AM 18.6333 -67.3500 131° Southeast 440 506 22,800 -2,300 Descending San Juan Center
Sun 01:52:58 AM 18.5667 -67.2500 125° Southeast 420 483 20,400 -2,231 Descending San Juan Center
Sun 01:53:59 AM 18.5000 -67.1667 130° Southeast 400 460 18,300 -2,083 Descending San Juan Center
Sun 01:54:59 AM 18.4333 -67.0833 130° Southeast 370 426 16,200 -2,000 Descending San Juan Center
Sun 01:55:59 AM 18.3667 -67.0000 130° Southeast 360 414 14,300 -1,835 Descending San Juan Center
Sun 01:57:00 AM 18.3000 -66.9167 130° Southeast 350 403 12,500 -1,884 Descending San Juan Center
Sun 01:58:00 AM 18.2333 -66.8500 136° Southeast 340 391 10,500 -1,850 Descending San Juan Center
Sun 01:59:00 AM 18.1667 -66.7500 125° Southeast 310 357 8,800 -1,587 Descending San Juan Center
Sun 02:00:01 AM 18.1333 -66.7000 125° Southeast 290 334 7,300 -893 Descending San Juan Center
Sun 02:01:01 AM 18.0833 -66.6333 128° Southeast 280 322 7,000 -150 Descending San Juan Center
Sun 02:02:01 AM 18.0333 -66.5667 128° Southeast 280 322 7,000 -446 Level San Juan Center
Sun 02:03:02 AM 17.9667 -66.5167 144° Southeast 270 311 6,100 -1,289 Descending San Juan Center
Sun 02:04:02 AM 17.9000 -66.4667 144° Southeast 270 311 4,400 -1,400 Descending San Juan Center
Sun 02:05:02 AM 17.8667 -66.4167 125° Southeast 290 334 3,300 -850 Descending San Juan Center
Sun 02:06:02 AM 17.9167 -66.3833 32° Northeast 180 207 2,700 -496 Descending San Juan Center
Sun 02:07:03 AM 17.9500 -66.4333 305° West 200 230 2,300 -595 Descending San Juan Center
Sun 02:08:03 AM 17.9667 -66.4667 298° West 150 173 1,500 -800 Descending San Juan Center

Login

Don't have an account? Register now (free) for customized features, flight alerts, and more!